sensor_id;sensor_type;location;lat;lon;timestamp;P1;durP1;ratioP1;P2;durP2;ratioP2
74328;SDS011;62745;51.060;13.786;2023-06-22T00:01:49;8.57;;;5.63;;
74328;SDS011;62745;51.060;13.786;2023-06-22T00:04:14;8.30;;;5.70;;
74328;SDS011;62745;51.060;13.786;2023-06-22T00:06:39;9.98;;;6.13;;
74328;SDS011;62745;51.060;13.786;2023-06-22T00:09:05;10.00;;;5.97;;
74328;SDS011;62745;51.060;13.786;2023-06-22T00:11:31;9.60;;;5.88;;
74328;SDS011;62745;51.060;13.786;2023-06-22T00:13:58;10.02;;;5.85;;
74328;SDS011;62745;51.060;13.786;2023-06-22T00:16:23;10.38;;;6.63;;
74328;SDS011;62745;51.060;13.786;2023-06-22T00:18:49;10.30;;;6.73;;
74328;SDS011;62745;51.060;13.786;2023-06-22T00:21:14;8.70;;;5.83;;
74328;SDS011;62745;51.060;13.786;2023-06-22T00:23:39;10.40;;;5.38;;
74328;SDS011;62745;51.060;13.786;2023-06-22T00:26:04;9.53;;;5.67;;
74328;SDS011;62745;51.060;13.786;2023-06-22T00:28:30;9.00;;;5.80;;
74328;SDS011;62745;51.060;13.786;2023-06-22T00:30:55;9.38;;;6.32;;
74328;SDS011;62745;51.060;13.786;2023-06-22T00:33:20;9.30;;;6.28;;
74328;SDS011;62745;51.060;13.786;2023-06-22T00:35:46;9.30;;;5.97;;
74328;SDS011;62745;51.060;13.786;2023-06-22T00:38:11;9.33;;;5.77;;
74328;SDS011;62745;51.060;13.786;2023-06-22T00:40:36;8.73;;;5.63;;
74328;SDS011;62745;51.060;13.786;2023-06-22T00:43:02;9.00;;;6.80;;
74328;SDS011;62745;51.060;13.786;2023-06-22T00:45:27;9.18;;;6.10;;
74328;SDS011;62745;51.060;13.786;2023-06-22T00:47:53;9.65;;;6.53;;
74328;SDS011;62745;51.060;13.786;2023-06-22T00:50:21;10.75;;;6.13;;
74328;SDS011;62745;51.060;13.786;2023-06-22T00:52:53;13.55;;;6.45;;
74328;SDS011;62745;51.060;13.786;2023-06-22T00:55:21;13.63;;;6.72;;
74328;SDS011;62745;51.060;13.786;2023-06-22T00:57:47;9.23;;;6.70;;
74328;SDS011;62745;51.060;13.786;2023-06-22T01:00:14;12.10;;;6.55;;
74328;SDS011;62745;51.060;13.786;2023-06-22T01:02:43;8.82;;;6.53;;
74328;SDS011;62745;51.060;13.786;2023-06-22T01:05:16;12.20;;;7.18;;
74328;SDS011;62745;51.060;13.786;2023-06-22T01:10:36;10.77;;;6.53;;
74328;SDS011;62745;51.060;13.786;2023-06-22T01:13:07;10.30;;;6.68;;
74328;SDS011;62745;51.060;13.786;2023-06-22T01:15:45;11.30;;;7.00;;
74328;SDS011;62745;51.060;13.786;2023-06-22T01:18:17;9.38;;;6.30;;
74328;SDS011;62745;51.060;13.786;2023-06-22T01:20:44;10.25;;;6.82;;
74328;SDS011;62745;51.060;13.786;2023-06-22T01:23:20;9.90;;;6.65;;
74328;SDS011;62745;51.060;13.786;2023-06-22T01:28:45;9.48;;;6.57;;
74328;SDS011;62745;51.060;13.786;2023-06-22T01:31:13;12.60;;;6.90;;
74328;SDS011;62745;51.060;13.786;2023-06-22T01:33:41;9.70;;;6.18;;
74328;SDS011;62745;51.060;13.786;2023-06-22T01:36:08;10.40;;;7.22;;
74328;SDS011;62745;51.060;13.786;2023-06-22T01:38:35;10.00;;;6.13;;
74328;SDS011;62745;51.060;13.786;2023-06-22T01:41:02;10.23;;;6.32;;
74328;SDS011;62745;51.060;13.786;2023-06-22T01:43:28;12.13;;;7.35;;
74328;SDS011;62745;51.060;13.786;2023-06-22T01:45:54;10.88;;;6.97;;
74328;SDS011;62745;51.060;13.786;2023-06-22T01:48:21;10.77;;;6.88;;
74328;SDS011;62745;51.060;13.786;2023-06-22T01:50:47;11.10;;;6.82;;
74328;SDS011;62745;51.060;13.786;2023-06-22T01:53:12;10.75;;;6.95;;
74328;SDS011;62745;51.060;13.786;2023-06-22T01:55:37;11.93;;;7.10;;
74328;SDS011;62745;51.060;13.786;2023-06-22T01:58:03;11.23;;;7.23;;
74328;SDS011;62745;51.060;13.786;2023-06-22T02:00:28;11.77;;;6.90;;
74328;SDS011;62745;51.060;13.786;2023-06-22T02:02:59;12.52;;;7.35;;
74328;SDS011;62745;51.060;13.786;2023-06-22T02:05:37;13.27;;;7.85;;
74328;SDS011;62745;51.060;13.786;2023-06-22T02:08:10;12.45;;;6.88;;
74328;SDS011;62745;51.060;13.786;2023-06-22T02:10:43;10.98;;;6.90;;
74328;SDS011;62745;51.060;13.786;2023-06-22T02:13:10;11.35;;;7.15;;
74328;SDS011;62745;51.060;13.786;2023-06-22T02:15:36;10.40;;;6.78;;
74328;SDS011;62745;51.060;13.786;2023-06-22T02:18:02;11.75;;;7.20;;
74328;SDS011;62745;51.060;13.786;2023-06-22T02:20:27;10.73;;;7.32;;
74328;SDS011;62745;51.060;13.786;2023-06-22T02:22:52;10.13;;;6.57;;
74328;SDS011;62745;51.060;13.786;2023-06-22T02:25:18;13.57;;;7.87;;
74328;SDS011;62745;51.060;13.786;2023-06-22T02:27:44;10.15;;;7.00;;
74328;SDS011;62745;51.060;13.786;2023-06-22T02:30:10;9.82;;;6.80;;
74328;SDS011;62745;51.060;13.786;2023-06-22T02:32:37;10.93;;;6.90;;
74328;SDS011;62745;51.060;13.786;2023-06-22T02:35:02;10.33;;;7.00;;
74328;SDS011;62745;51.060;13.786;2023-06-22T02:37:31;11.95;;;7.10;;
74328;SDS011;62745;51.060;13.786;2023-06-22T02:39:57;10.75;;;6.80;;
74328;SDS011;62745;51.060;13.786;2023-06-22T02:42:22;11.40;;;7.38;;
74328;SDS011;62745;51.060;13.786;2023-06-22T02:44:48;11.57;;;7.17;;
74328;SDS011;62745;51.060;13.786;2023-06-22T02:47:13;10.50;;;7.07;;
74328;SDS011;62745;51.060;13.786;2023-06-22T02:49:38;12.60;;;7.47;;
74328;SDS011;62745;51.060;13.786;2023-06-22T02:52:04;13.07;;;7.53;;
74328;SDS011;62745;51.060;13.786;2023-06-22T02:54:29;11.65;;;6.82;;
74328;SDS011;62745;51.060;13.786;2023-06-22T02:56:54;12.63;;;7.20;;
74328;SDS011;62745;51.060;13.786;2023-06-22T02:59:19;10.97;;;6.97;;
74328;SDS011;62745;51.060;13.786;2023-06-22T03:01:49;12.50;;;7.10;;
74328;SDS011;62745;51.060;13.786;2023-06-22T03:04:15;10.18;;;7.32;;
74328;SDS011;62745;51.060;13.786;2023-06-22T03:06:40;11.85;;;7.65;;
74328;SDS011;62745;51.060;13.786;2023-06-22T03:09:05;12.90;;;7.03;;
74328;SDS011;62745;51.060;13.786;2023-06-22T03:11:31;11.52;;;7.60;;
74328;SDS011;62745;51.060;13.786;2023-06-22T03:13:57;12.55;;;7.28;;
74328;SDS011;62745;51.060;13.786;2023-06-22T03:16:23;10.40;;;6.97;;
74328;SDS011;62745;51.060;13.786;2023-06-22T03:18:48;11.57;;;7.53;;
74328;SDS011;62745;51.060;13.786;2023-06-22T03:21:13;13.90;;;7.87;;
74328;SDS011;62745;51.060;13.786;2023-06-22T03:23:40;11.80;;;7.22;;
74328;SDS011;62745;51.060;13.786;2023-06-22T03:26:05;10.73;;;7.38;;
74328;SDS011;62745;51.060;13.786;2023-06-22T03:28:31;11.67;;;7.77;;
74328;SDS011;62745;51.060;13.786;2023-06-22T03:30:57;11.73;;;7.50;;
74328;SDS011;62745;51.060;13.786;2023-06-22T03:33:22;12.98;;;7.25;;
74328;SDS011;62745;51.060;13.786;2023-06-22T03:35:48;11.40;;;7.63;;
74328;SDS011;62745;51.060;13.786;2023-06-22T03:38:13;10.32;;;7.30;;
74328;SDS011;62745;51.060;13.786;2023-06-22T03:40:39;10.73;;;7.03;;
74328;SDS011;62745;51.060;13.786;2023-06-22T03:43:04;12.97;;;7.23;;
74328;SDS011;62745;51.060;13.786;2023-06-22T03:45:29;10.80;;;7.50;;
74328;SDS011;62745;51.060;13.786;2023-06-22T03:47:54;12.70;;;7.37;;
74328;SDS011;62745;51.060;13.786;2023-06-22T03:50:20;13.63;;;7.67;;
74328;SDS011;62745;51.060;13.786;2023-06-22T03:52:45;13.07;;;7.57;;
74328;SDS011;62745;51.060;13.786;2023-06-22T03:55:11;12.88;;;7.45;;
74328;SDS011;62745;51.060;13.786;2023-06-22T03:57:37;11.32;;;7.68;;
74328;SDS011;62745;51.060;13.786;2023-06-22T04:00:02;10.97;;;7.03;;
74328;SDS011;62745;51.060;13.786;2023-06-22T04:02:30;10.88;;;7.45;;
74328;SDS011;62745;51.060;13.786;2023-06-22T04:04:56;11.95;;;7.55;;
74328;SDS011;62745;51.060;13.786;2023-06-22T04:07:21;10.55;;;7.07;;
74328;SDS011;62745;51.060;13.786;2023-06-22T04:09:47;12.50;;;7.23;;
74328;SDS011;62745;51.060;13.786;2023-06-22T04:12:12;10.97;;;7.97;;
74328;SDS011;62745;51.060;13.786;2023-06-22T04:14:37;13.30;;;8.50;;
74328;SDS011;62745;51.060;13.786;2023-06-22T04:17:02;12.60;;;6.97;;
74328;SDS011;62745;51.060;13.786;2023-06-22T04:19:28;10.07;;;6.82;;
74328;SDS011;62745;51.060;13.786;2023-06-22T04:21:53;12.90;;;7.47;;
74328;SDS011;62745;51.060;13.786;2023-06-22T04:24:18;13.00;;;8.17;;
74328;SDS011;62745;51.060;13.786;2023-06-22T04:26:43;11.47;;;7.67;;
74328;SDS011;62745;51.060;13.786;2023-06-22T04:29:10;11.65;;;7.70;;
74328;SDS011;62745;51.060;13.786;2023-06-22T04:31:36;10.77;;;7.80;;
74328;SDS011;62745;51.060;13.786;2023-06-22T04:34:02;13.18;;;8.02;;
74328;SDS011;62745;51.060;13.786;2023-06-22T04:39:03;10.80;;;7.65;;
74328;SDS011;62745;51.060;13.786;2023-06-22T04:41:29;10.55;;;6.88;;
74328;SDS011;62745;51.060;13.786;2023-06-22T04:43:54;12.30;;;7.27;;
74328;SDS011;62745;51.060;13.786;2023-06-22T04:46:24;11.75;;;7.65;;
74328;SDS011;62745;51.060;13.786;2023-06-22T04:48:50;12.63;;;7.70;;
74328;SDS011;62745;51.060;13.786;2023-06-22T04:51:15;10.10;;;7.30;;
74328;SDS011;62745;51.060;13.786;2023-06-22T04:53:40;10.43;;;7.47;;
74328;SDS011;62745;51.060;13.786;2023-06-22T04:56:06;11.35;;;7.18;;
74328;SDS011;62745;51.060;13.786;2023-06-22T04:58:31;10.73;;;7.13;;
74328;SDS011;62745;51.060;13.786;2023-06-22T05:00:57;11.10;;;7.40;;
74328;SDS011;62745;51.060;13.786;2023-06-22T05:03:24;11.67;;;7.27;;
74328;SDS011;62745;51.060;13.786;2023-06-22T05:05:51;11.43;;;7.18;;
74328;SDS011;62745;51.060;13.786;2023-06-22T05:08:17;13.55;;;7.55;;
74328;SDS011;62745;51.060;13.786;2023-06-22T05:10:42;11.00;;;7.68;;
74328;SDS011;62745;51.060;13.786;2023-06-22T05:13:08;19.70;;;8.90;;
74328;SDS011;62745;51.060;13.786;2023-06-22T05:15:33;11.27;;;7.63;;
74328;SDS011;62745;51.060;13.786;2023-06-22T05:18:02;11.43;;;7.10;;
74328;SDS011;62745;51.060;13.786;2023-06-22T05:20:30;10.55;;;7.43;;
74328;SDS011;62745;51.060;13.786;2023-06-22T05:22:56;11.98;;;8.02;;
74328;SDS011;62745;51.060;13.786;2023-06-22T05:25:21;12.07;;;7.70;;
74328;SDS011;62745;51.060;13.786;2023-06-22T05:27:46;13.00;;;7.90;;
74328;SDS011;62745;51.060;13.786;2023-06-22T05:30:11;11.97;;;7.03;;
74328;SDS011;62745;51.060;13.786;2023-06-22T05:32:37;14.18;;;7.78;;
74328;SDS011;62745;51.060;13.786;2023-06-22T05:35:03;17.57;;;8.13;;
74328;SDS011;62745;51.060;13.786;2023-06-22T05:37:29;15.07;;;8.43;;
74328;SDS011;62745;51.060;13.786;2023-06-22T05:39:54;11.10;;;7.70;;
74328;SDS011;62745;51.060;13.786;2023-06-22T05:42:20;12.82;;;8.07;;
74328;SDS011;62745;51.060;13.786;2023-06-22T05:44:45;12.20;;;7.85;;
74328;SDS011;62745;51.060;13.786;2023-06-22T05:47:12;14.23;;;7.88;;
74328;SDS011;62745;51.060;13.786;2023-06-22T05:49:37;12.30;;;7.25;;
74328;SDS011;62745;51.060;13.786;2023-06-22T05:52:03;13.07;;;7.60;;
74328;SDS011;62745;51.060;13.786;2023-06-22T05:54:28;13.10;;;7.68;;
74328;SDS011;62745;51.060;13.786;2023-06-22T05:56:54;13.00;;;8.17;;
74328;SDS011;62745;51.060;13.786;2023-06-22T05:59:19;11.70;;;7.43;;
74328;SDS011;62745;51.060;13.786;2023-06-22T06:01:44;10.77;;;7.07;;
74328;SDS011;62745;51.060;13.786;2023-06-22T06:04:11;11.90;;;7.30;;
74328;SDS011;62745;51.060;13.786;2023-06-22T06:06:36;10.80;;;7.50;;
74328;SDS011;62745;51.060;13.786;2023-06-22T06:09:05;13.65;;;7.78;;
74328;SDS011;62745;51.060;13.786;2023-06-22T06:11:32;13.52;;;7.30;;
74328;SDS011;62745;51.060;13.786;2023-06-22T06:13:57;12.17;;;7.63;;
74328;SDS011;62745;51.060;13.786;2023-06-22T06:16:23;11.53;;;7.13;;
74328;SDS011;62745;51.060;13.786;2023-06-22T06:18:48;14.82;;;7.03;;
74328;SDS011;62745;51.060;13.786;2023-06-22T06:21:15;11.23;;;7.00;;
74328;SDS011;62745;51.060;13.786;2023-06-22T06:23:41;10.25;;;6.60;;
74328;SDS011;62745;51.060;13.786;2023-06-22T06:26:07;10.27;;;7.03;;
74328;SDS011;62745;51.060;13.786;2023-06-22T06:28:32;9.55;;;6.65;;
74328;SDS011;62745;51.060;13.786;2023-06-22T06:30:58;12.52;;;7.60;;
74328;SDS011;62745;51.060;13.786;2023-06-22T06:33:23;11.13;;;6.73;;
74328;SDS011;62745;51.060;13.786;2023-06-22T06:35:49;11.88;;;6.90;;
74328;SDS011;62745;51.060;13.786;2023-06-22T06:38:14;12.90;;;7.15;;
74328;SDS011;62745;51.060;13.786;2023-06-22T06:40:40;9.38;;;6.10;;
74328;SDS011;62745;51.060;13.786;2023-06-22T06:43:05;10.18;;;6.43;;
74328;SDS011;62745;51.060;13.786;2023-06-22T06:45:31;12.02;;;6.28;;
74328;SDS011;62745;51.060;13.786;2023-06-22T06:47:57;9.88;;;6.70;;
74328;SDS011;62745;51.060;13.786;2023-06-22T06:50:23;11.30;;;6.88;;
74328;SDS011;62745;51.060;13.786;2023-06-22T06:52:48;10.18;;;6.15;;
74328;SDS011;62745;51.060;13.786;2023-06-22T06:55:15;9.05;;;6.80;;
74328;SDS011;62745;51.060;13.786;2023-06-22T06:57:41;9.82;;;6.32;;
74328;SDS011;62745;51.060;13.786;2023-06-22T07:00:07;9.82;;;7.03;;
74328;SDS011;62745;51.060;13.786;2023-06-22T07:02:37;11.07;;;7.05;;
74328;SDS011;62745;51.060;13.786;2023-06-22T07:05:04;9.27;;;6.45;;
74328;SDS011;62745;51.060;13.786;2023-06-22T07:07:30;12.73;;;6.82;;
74328;SDS011;62745;51.060;13.786;2023-06-22T07:09:56;10.52;;;6.85;;
74328;SDS011;62745;51.060;13.786;2023-06-22T07:12:21;10.10;;;6.53;;
74328;SDS011;62745;51.060;13.786;2023-06-22T07:14:46;10.37;;;7.27;;
74328;SDS011;62745;51.060;13.786;2023-06-22T07:17:12;11.50;;;7.10;;
74328;SDS011;62745;51.060;13.786;2023-06-22T07:19:37;10.52;;;6.95;;
74328;SDS011;62745;51.060;13.786;2023-06-22T07:22:03;11.50;;;6.95;;
74328;SDS011;62745;51.060;13.786;2023-06-22T07:24:28;11.68;;;7.43;;
74328;SDS011;62745;51.060;13.786;2023-06-22T07:26:53;13.03;;;7.67;;
74328;SDS011;62745;51.060;13.786;2023-06-22T07:29:19;11.73;;;7.13;;
74328;SDS011;62745;51.060;13.786;2023-06-22T07:31:46;11.00;;;7.18;;
74328;SDS011;62745;51.060;13.786;2023-06-22T07:34:12;10.68;;;7.30;;
74328;SDS011;62745;51.060;13.786;2023-06-22T07:36:38;10.82;;;6.40;;
74328;SDS011;62745;51.060;13.786;2023-06-22T07:39:03;10.68;;;6.88;;
74328;SDS011;62745;51.060;13.786;2023-06-22T07:41:29;9.77;;;7.20;;
74328;SDS011;62745;51.060;13.786;2023-06-22T07:43:54;10.23;;;7.43;;
74328;SDS011;62745;51.060;13.786;2023-06-22T07:46:20;10.25;;;7.32;;
74328;SDS011;62745;51.060;13.786;2023-06-22T07:48:45;10.00;;;6.82;;
74328;SDS011;62745;51.060;13.786;2023-06-22T07:51:10;8.63;;;6.30;;
74328;SDS011;62745;51.060;13.786;2023-06-22T07:53:37;8.88;;;6.70;;
74328;SDS011;62745;51.060;13.786;2023-06-22T07:56:03;13.57;;;7.70;;
74328;SDS011;62745;51.060;13.786;2023-06-22T07:58:31;9.65;;;6.47;;
74328;SDS011;62745;51.060;13.786;2023-06-22T08:00:57;11.55;;;6.50;;
74328;SDS011;62745;51.060;13.786;2023-06-22T08:03:22;8.93;;;6.80;;
74328;SDS011;62745;51.060;13.786;2023-06-22T08:05:47;9.87;;;6.23;;
74328;SDS011;62745;51.060;13.786;2023-06-22T08:08:13;13.80;;;9.25;;
74328;SDS011;62745;51.060;13.786;2023-06-22T08:10:39;8.00;;;6.07;;
74328;SDS011;62745;51.060;13.786;2023-06-22T08:13:05;8.07;;;5.70;;
74328;SDS011;62745;51.060;13.786;2023-06-22T08:15:31;8.80;;;5.93;;
74328;SDS011;62745;51.060;13.786;2023-06-22T08:17:56;8.03;;;6.50;;
74328;SDS011;62745;51.060;13.786;2023-06-22T08:20:22;7.78;;;5.57;;
74328;SDS011;62745;51.060;13.786;2023-06-22T08:22:48;8.30;;;6.15;;
74328;SDS011;62745;51.060;13.786;2023-06-22T08:25:13;7.27;;;5.60;;
74328;SDS011;62745;51.060;13.786;2023-06-22T08:27:38;8.67;;;5.63;;
74328;SDS011;62745;51.060;13.786;2023-06-22T08:30:04;6.80;;;5.10;;
74328;SDS011;62745;51.060;13.786;2023-06-22T08:32:31;8.20;;;5.45;;
74328;SDS011;62745;51.060;13.786;2023-06-22T08:34:57;8.50;;;5.25;;
74328;SDS011;62745;51.060;13.786;2023-06-22T08:37:23;8.85;;;5.45;;
74328;SDS011;62745;51.060;13.786;2023-06-22T08:39:58;7.15;;;5.20;;
74328;SDS011;62745;51.060;13.786;2023-06-22T08:42:25;7.68;;;5.40;;
74328;SDS011;62745;51.060;13.786;2023-06-22T08:44:51;7.75;;;5.75;;
74328;SDS011;62745;51.060;13.786;2023-06-22T08:47:16;9.20;;;5.63;;
74328;SDS011;62745;51.060;13.786;2023-06-22T08:49:42;9.27;;;5.67;;
74328;SDS011;62745;51.060;13.786;2023-06-22T08:52:07;8.10;;;5.37;;
74328;SDS011;62745;51.060;13.786;2023-06-22T08:54:32;6.80;;;5.18;;
74328;SDS011;62745;51.060;13.786;2023-06-22T08:56:59;7.80;;;5.63;;
74328;SDS011;62745;51.060;13.786;2023-06-22T08:59:25;7.32;;;4.97;;
74328;SDS011;62745;51.060;13.786;2023-06-22T09:01:50;6.65;;;4.38;;
74328;SDS011;62745;51.060;13.786;2023-06-22T09:04:15;8.93;;;5.17;;
74328;SDS011;62745;51.060;13.786;2023-06-22T09:06:41;7.83;;;5.20;;
74328;SDS011;62745;51.060;13.786;2023-06-22T09:09:10;7.85;;;4.85;;
74328;SDS011;62745;51.060;13.786;2023-06-22T09:11:37;9.05;;;5.25;;
74328;SDS011;62745;51.060;13.786;2023-06-22T09:14:02;7.50;;;4.80;;
74328;SDS011;62745;51.060;13.786;2023-06-22T09:16:28;6.32;;;4.45;;
74328;SDS011;62745;51.060;13.786;2023-06-22T09:18:53;8.70;;;4.80;;
74328;SDS011;62745;51.060;13.786;2023-06-22T09:21:19;6.00;;;4.40;;
74328;SDS011;62745;51.060;13.786;2023-06-22T09:23:44;8.13;;;4.80;;
74328;SDS011;62745;51.060;13.786;2023-06-22T09:26:11;6.63;;;4.90;;
74328;SDS011;62745;51.060;13.786;2023-06-22T09:28:37;7.00;;;4.75;;
74328;SDS011;62745;51.060;13.786;2023-06-22T09:31:02;7.07;;;5.13;;
74328;SDS011;62745;51.060;13.786;2023-06-22T09:33:28;9.13;;;5.10;;
74328;SDS011;62745;51.060;13.786;2023-06-22T09:35:53;6.70;;;4.97;;
74328;SDS011;62745;51.060;13.786;2023-06-22T09:38:18;9.30;;;5.27;;
74328;SDS011;62745;51.060;13.786;2023-06-22T09:40:43;7.10;;;5.10;;
74328;SDS011;62745;51.060;13.786;2023-06-22T09:43:09;6.80;;;5.10;;
74328;SDS011;62745;51.060;13.786;2023-06-22T09:45:34;7.85;;;4.90;;
74328;SDS011;62745;51.060;13.786;2023-06-22T09:47:59;7.05;;;5.20;;
74328;SDS011;62745;51.060;13.786;2023-06-22T09:50:25;8.88;;;4.85;;
74328;SDS011;62745;51.060;13.786;2023-06-22T09:52:50;8.00;;;4.80;;
74328;SDS011;62745;51.060;13.786;2023-06-22T09:55:19;6.97;;;5.10;;
74328;SDS011;62745;51.060;13.786;2023-06-22T09:57:44;6.43;;;4.70;;
74328;SDS011;62745;51.060;13.786;2023-06-22T10:00:10;7.30;;;4.50;;
74328;SDS011;62745;51.060;13.786;2023-06-22T10:02:38;7.57;;;5.20;;
74328;SDS011;62745;51.060;13.786;2023-06-22T10:05:04;6.90;;;4.93;;
74328;SDS011;62745;51.060;13.786;2023-06-22T10:07:29;8.20;;;5.13;;
74328;SDS011;62745;51.060;13.786;2023-06-22T10:09:54;8.87;;;5.10;;
74328;SDS011;62745;51.060;13.786;2023-06-22T10:12:19;8.20;;;4.83;;
74328;SDS011;62745;51.060;13.786;2023-06-22T10:14:45;8.87;;;4.97;;
74328;SDS011;62745;51.060;13.786;2023-06-22T10:17:10;7.77;;;5.67;;
74328;SDS011;62745;51.060;13.786;2023-06-22T10:19:35;8.18;;;6.10;;
74328;SDS011;62745;51.060;13.786;2023-06-22T10:22:02;9.50;;;5.88;;
74328;SDS011;62745;51.060;13.786;2023-06-22T10:24:28;7.40;;;5.68;;
74328;SDS011;62745;51.060;13.786;2023-06-22T10:26:54;8.63;;;6.17;;
74328;SDS011;62745;51.060;13.786;2023-06-22T10:29:19;8.53;;;5.97;;
74328;SDS011;62745;51.060;13.786;2023-06-22T10:31:45;7.15;;;5.97;;
74328;SDS011;62745;51.060;13.786;2023-06-22T10:34:10;8.17;;;5.80;;
74328;SDS011;62745;51.060;13.786;2023-06-22T10:36:35;8.80;;;6.13;;
74328;SDS011;62745;51.060;13.786;2023-06-22T10:39:00;7.87;;;5.40;;
74328;SDS011;62745;51.060;13.786;2023-06-22T10:41:27;9.13;;;6.07;;
74328;SDS011;62745;51.060;13.786;2023-06-22T10:43:55;8.10;;;5.90;;
74328;SDS011;62745;51.060;13.786;2023-06-22T10:46:20;8.63;;;5.97;;
74328;SDS011;62745;51.060;13.786;2023-06-22T10:48:46;9.27;;;5.77;;
74328;SDS011;62745;51.060;13.786;2023-06-22T10:51:11;8.17;;;5.93;;
74328;SDS011;62745;51.060;13.786;2023-06-22T10:53:36;8.07;;;5.63;;
74328;SDS011;62745;51.060;13.786;2023-06-22T10:56:01;7.13;;;5.40;;
74328;SDS011;62745;51.060;13.786;2023-06-22T10:58:27;6.93;;;5.50;;
74328;SDS011;62745;51.060;13.786;2023-06-22T11:00:52;7.60;;;5.03;;
74328;SDS011;62745;51.060;13.786;2023-06-22T11:03:17;6.77;;;5.57;;
74328;SDS011;62745;51.060;13.786;2023-06-22T11:05:42;6.37;;;4.93;;
74328;SDS011;62745;51.060;13.786;2023-06-22T11:08:08;7.45;;;5.60;;
74328;SDS011;62745;51.060;13.786;2023-06-22T11:10:33;6.60;;;5.10;;
74328;SDS011;62745;51.060;13.786;2023-06-22T11:12:58;7.20;;;5.50;;
74328;SDS011;62745;51.060;13.786;2023-06-22T11:15:24;8.48;;;5.10;;
74328;SDS011;62745;51.060;13.786;2023-06-22T11:17:50;9.38;;;6.38;;
74328;SDS011;62745;51.060;13.786;2023-06-22T11:20:15;9.30;;;5.87;;
74328;SDS011;62745;51.060;13.786;2023-06-22T11:22:40;8.52;;;5.97;;
74328;SDS011;62745;51.060;13.786;2023-06-22T11:25:06;7.30;;;5.80;;
74328;SDS011;62745;51.060;13.786;2023-06-22T11:27:32;7.20;;;5.85;;
74328;SDS011;62745;51.060;13.786;2023-06-22T11:29:57;8.80;;;6.00;;
74328;SDS011;62745;51.060;13.786;2023-06-22T11:32:23;7.30;;;5.60;;
74328;SDS011;62745;51.060;13.786;2023-06-22T11:34:48;7.38;;;5.65;;
74328;SDS011;62745;51.060;13.786;2023-06-22T11:37:13;7.07;;;5.28;;
74328;SDS011;62745;51.060;13.786;2023-06-22T11:39:39;7.57;;;5.37;;
74328;SDS011;62745;51.060;13.786;2023-06-22T11:42:04;7.67;;;5.87;;
74328;SDS011;62745;51.060;13.786;2023-06-22T11:44:29;6.85;;;5.57;;
74328;SDS011;62745;51.060;13.786;2023-06-22T11:46:55;7.60;;;6.32;;
74328;SDS011;62745;51.060;13.786;2023-06-22T11:49:20;7.37;;;5.23;;
74328;SDS011;62745;51.060;13.786;2023-06-22T11:51:45;7.70;;;5.57;;
74328;SDS011;62745;51.060;13.786;2023-06-22T11:54:10;8.20;;;5.83;;
74328;SDS011;62745;51.060;13.786;2023-06-22T11:56:36;8.33;;;5.60;;
74328;SDS011;62745;51.060;13.786;2023-06-22T11:59:01;9.93;;;6.17;;
74328;SDS011;62745;51.060;13.786;2023-06-22T12:01:27;8.10;;;5.87;;
74328;SDS011;62745;51.060;13.786;2023-06-22T12:03:52;8.85;;;5.75;;
74328;SDS011;62745;51.060;13.786;2023-06-22T12:06:17;7.70;;;5.80;;
74328;SDS011;62745;51.060;13.786;2023-06-22T12:08:42;8.23;;;5.88;;
74328;SDS011;62745;51.060;13.786;2023-06-22T12:11:08;7.53;;;5.50;;
74328;SDS011;62745;51.060;13.786;2023-06-22T12:13:33;7.77;;;6.00;;
74328;SDS011;62745;51.060;13.786;2023-06-22T12:15:58;7.70;;;5.73;;
74328;SDS011;62745;51.060;13.786;2023-06-22T12:18:24;8.63;;;5.50;;
74328;SDS011;62745;51.060;13.786;2023-06-22T12:20:49;8.48;;;6.03;;
74328;SDS011;62745;51.060;13.786;2023-06-22T12:23:14;8.50;;;5.73;;
74328;SDS011;62745;51.060;13.786;2023-06-22T12:25:40;7.93;;;5.78;;
74328;SDS011;62745;51.060;13.786;2023-06-22T12:28:05;9.50;;;6.00;;
74328;SDS011;62745;51.060;13.786;2023-06-22T12:30:32;8.20;;;5.77;;
74328;SDS011;62745;51.060;13.786;2023-06-22T12:32:57;8.27;;;5.78;;
74328;SDS011;62745;51.060;13.786;2023-06-22T12:35:23;7.97;;;5.90;;
74328;SDS011;62745;51.060;13.786;2023-06-22T12:37:48;7.40;;;5.80;;
74328;SDS011;62745;51.060;13.786;2023-06-22T12:40:13;10.20;;;5.63;;
74328;SDS011;62745;51.060;13.786;2023-06-22T12:42:39;8.03;;;6.17;;
74328;SDS011;62745;51.060;13.786;2023-06-22T12:45:05;8.40;;;5.47;;
74328;SDS011;62745;51.060;13.786;2023-06-22T12:47:30;9.27;;;5.85;;
74328;SDS011;62745;51.060;13.786;2023-06-22T12:49:56;9.13;;;5.38;;
74328;SDS011;62745;51.060;13.786;2023-06-22T12:52:21;7.35;;;5.78;;
74328;SDS011;62745;51.060;13.786;2023-06-22T12:54:46;6.53;;;4.85;;
74328;SDS011;62745;51.060;13.786;2023-06-22T12:57:12;7.50;;;5.57;;
74328;SDS011;62745;51.060;13.786;2023-06-22T12:59:37;8.93;;;5.63;;
74328;SDS011;62745;51.060;13.786;2023-06-22T13:02:02;8.53;;;5.70;;
74328;SDS011;62745;51.060;13.786;2023-06-22T13:04:28;8.70;;;6.20;;
74328;SDS011;62745;51.060;13.786;2023-06-22T13:06:53;7.23;;;5.53;;
74328;SDS011;62745;51.060;13.786;2023-06-22T13:09:18;7.90;;;5.73;;
74328;SDS011;62745;51.060;13.786;2023-06-22T13:11:44;7.07;;;5.88;;
74328;SDS011;62745;51.060;13.786;2023-06-22T13:14:09;9.80;;;5.70;;
74328;SDS011;62745;51.060;13.786;2023-06-22T13:16:35;7.97;;;5.82;;
74328;SDS011;62745;51.060;13.786;2023-06-22T13:19:00;9.17;;;5.97;;
74328;SDS011;62745;51.060;13.786;2023-06-22T13:21:25;7.90;;;5.00;;
74328;SDS011;62745;51.060;13.786;2023-06-22T13:23:50;7.30;;;5.57;;
74328;SDS011;62745;51.060;13.786;2023-06-22T13:26:16;9.52;;;5.53;;
74328;SDS011;62745;51.060;13.786;2023-06-22T13:28:41;7.70;;;5.50;;
74328;SDS011;62745;51.060;13.786;2023-06-22T13:31:06;7.30;;;5.57;;
74328;SDS011;62745;51.060;13.786;2023-06-22T13:33:31;7.93;;;5.60;;
74328;SDS011;62745;51.060;13.786;2023-06-22T13:35:57;6.77;;;5.53;;
74328;SDS011;62745;51.060;13.786;2023-06-22T13:38:22;7.47;;;5.93;;
74328;SDS011;62745;51.060;13.786;2023-06-22T13:40:48;8.98;;;5.68;;
74328;SDS011;62745;51.060;13.786;2023-06-22T13:43:13;7.55;;;5.55;;
74328;SDS011;62745;51.060;13.786;2023-06-22T13:45:39;7.55;;;5.63;;
74328;SDS011;62745;51.060;13.786;2023-06-22T13:48:04;6.95;;;5.57;;
74328;SDS011;62745;51.060;13.786;2023-06-22T13:50:30;6.82;;;5.00;;
74328;SDS011;62745;51.060;13.786;2023-06-22T13:52:55;9.10;;;5.80;;
74328;SDS011;62745;51.060;13.786;2023-06-22T13:55:21;7.43;;;5.57;;
74328;SDS011;62745;51.060;13.786;2023-06-22T13:57:47;7.55;;;5.90;;
74328;SDS011;62745;51.060;13.786;2023-06-22T14:00:12;7.75;;;5.35;;
74328;SDS011;62745;51.060;13.786;2023-06-22T14:02:38;7.68;;;5.78;;
74328;SDS011;62745;51.060;13.786;2023-06-22T14:05:04;7.78;;;6.15;;
74328;SDS011;62745;51.060;13.786;2023-06-22T14:07:30;8.07;;;5.55;;
74328;SDS011;62745;51.060;13.786;2023-06-22T14:09:56;7.32;;;5.10;;
74328;SDS011;62745;51.060;13.786;2023-06-22T14:12:22;7.63;;;5.78;;
74328;SDS011;62745;51.060;13.786;2023-06-22T14:14:48;6.95;;;5.70;;
74328;SDS011;62745;51.060;13.786;2023-06-22T14:17:13;8.53;;;5.83;;
74328;SDS011;62745;51.060;13.786;2023-06-22T14:19:38;8.50;;;5.50;;
74328;SDS011;62745;51.060;13.786;2023-06-22T14:22:03;7.83;;;5.77;;
74328;SDS011;62745;51.060;13.786;2023-06-22T14:24:29;8.63;;;5.95;;
74328;SDS011;62745;51.060;13.786;2023-06-22T14:26:54;11.90;;;6.10;;
74328;SDS011;62745;51.060;13.786;2023-06-22T14:29:20;7.72;;;5.90;;